Time;durP1;ratioP1;P1;durP2;ratioP2;P2;SDS_P1;SDS_P2;PMS_P1;PMS_P2;Temp;Humidity;BMP_temperature;BMP_pressure;BME280_temperature;BME280_humidity;BME280_pressure;Samples;Min_cycle;Max_cycle;Signal;HPM_P1;HPM_P2
2023/08/29 00:02:13;;;;;;;1.13;1.02;;;23.20;57.70;;;;;;5003341;28;87176;-89
2023/08/29 00:04:39;;;;;;;1.45;1.08;;;23.20;57.70;;;;;;5005902;28;86594;-90
2023/08/29 00:07:05;;;;;;;1.15;1.05;;;23.20;57.70;;;;;;4998593;28;89370;-91
2023/08/29 00:09:31;;;;;;;1.00;0.90;;;23.20;57.60;;;;;;4998530;28;86903;-90
2023/08/29 00:11:57;;;;;;;1.92;0.98;;;23.20;57.70;;;;;;5000391;28;86090;-90
2023/08/29 00:14:23;;;;;;;1.15;1.02;;;23.20;57.80;;;;;;4996485;28;86290;-90
2023/08/29 00:16:49;;;;;;;1.40;1.30;;;23.20;57.90;;;;;;4999971;28;88273;-91
2023/08/29 00:19:15;;;;;;;1.00;0.80;;;23.20;57.90;;;;;;4995389;28;86436;-90
2023/08/29 00:21:41;;;;;;;1.30;1.20;;;23.20;58.00;;;;;;4996838;28;86855;-88
2023/08/29 00:24:10;;;;;;;1.27;1.10;;;23.20;57.60;;;;;;4997974;28;86583;-91
2023/08/29 00:26:36;;;;;;;0.93;0.93;;;23.20;57.50;;;;;;4999556;28;88848;-90
2023/08/29 00:29:02;;;;;;;0.98;0.88;;;23.20;58.20;;;;;;4992995;28;87543;-89
2023/08/29 00:31:27;;;;;;;0.93;0.90;;;23.20;57.50;;;;;;4998918;28;86359;-89
2023/08/29 00:33:54;;;;;;;1.02;0.93;;;23.20;57.50;;;;;;5000500;28;86038;-90
2023/08/29 00:36:20;;;;;;;1.10;1.00;;;23.20;57.50;;;;;;4998749;28;88623;-90
2023/08/29 00:38:46;;;;;;;1.52;1.20;;;23.20;57.60;;;;;;4996459;28;88871;-91
2023/08/29 00:41:11;;;;;;;1.30;1.20;;;23.20;57.50;;;;;;4996288;28;86177;-89
2023/08/29 00:43:37;;;;;;;1.10;1.00;;;23.20;57.60;;;;;;4999613;28;86225;-89
2023/08/29 00:46:04;;;;;;;1.02;0.90;;;23.20;57.70;;;;;;5004211;28;87499;-90
2023/08/29 00:48:31;;;;;;;2.28;0.88;;;23.20;57.60;;;;;;4998800;28;87756;-90
2023/08/29 00:50:57;;;;;;;1.38;1.00;;;23.20;57.70;;;;;;4993734;28;86995;-89
2023/08/29 00:53:25;;;;;;;0.77;0.77;;;23.10;57.70;;;;;;5002493;28;86071;-91
2023/08/29 00:55:51;;;;;;;1.23;1.13;;;23.20;57.60;;;;;;4998151;28;87328;-90
2023/08/29 00:58:17;;;;;;;1.20;1.00;;;23.20;57.50;;;;;;4994871;28;88346;-90
2023/08/29 01:00:43;;;;;;;1.10;1.00;;;23.20;57.70;;;;;;4994142;28;86269;-90
2023/08/29 01:03:09;;;;;;;0.70;0.70;;;23.20;57.60;;;;;;4993949;28;86419;-89
2023/08/29 01:05:34;;;;;;;1.00;0.90;;;23.20;57.60;;;;;;4996419;28;89960;-90
2023/08/29 01:08:01;;;;;;;1.17;1.08;;;23.20;57.70;;;;;;5001056;28;86506;-91
2023/08/29 01:10:38;;;;;;;1.02;0.98;;;23.20;57.60;;;;;;4996433;28;86177;-90
2023/08/29 01:13:31;;;;;;;1.10;1.00;;;23.10;57.70;;;;;;4996989;28;86542;-90
2023/08/29 01:16:00;;;;;;;1.95;1.23;;;23.10;58.10;;;;;;4992679;28;93809;-90
2023/08/29 01:18:28;;;;;;;;;;;23.10;58.20;;;;;;4997202;28;86054;-90
2023/08/29 01:21:05;;;;;;;1.20;1.10;;;23.10;58.20;;;;;;4999597;28;86409;-90
2023/08/29 01:23:54;;;;;;;2.17;1.10;;;23.10;58.00;;;;;;4998894;28;86258;-89
2023/08/29 01:26:22;;;;;;;1.10;1.00;;;23.10;57.90;;;;;;4991399;28;90030;-90
2023/08/29 01:28:49;;;;;;;1.20;1.10;;;23.10;58.00;;;;;;4997795;28;86287;-90
2023/08/29 01:31:16;;;;;;;0.80;0.80;;;23.20;58.00;;;;;;5001945;28;86099;-91
2023/08/29 01:33:43;;;;;;;0.82;0.82;;;23.10;58.00;;;;;;4998500;28;86138;-91
2023/08/29 01:36:08;;;;;;;1.00;0.90;;;23.10;57.90;;;;;;4999538;28;86505;-90
2023/08/29 01:38:34;;;;;;;1.13;0.90;;;23.10;58.00;;;;;;4996568;28;89125;-90
2023/08/29 01:41:00;;;;;;;0.90;0.90;;;23.10;58.20;;;;;;4998797;28;86402;-91
2023/08/29 01:43:25;;;;;;;1.10;1.00;;;23.10;58.10;;;;;;4995742;28;86555;-90
2023/08/29 01:45:51;;;;;;;0.90;0.88;;;23.10;58.10;;;;;;5001395;28;86393;-90
2023/08/29 01:48:17;;;;;;;0.88;0.88;;;23.10;58.20;;;;;;4997906;28;92622;-90
2023/08/29 01:50:43;;;;;;;0.80;0.80;;;23.10;58.30;;;;;;4994821;28;86477;-89
2023/08/29 01:53:09;;;;;;;0.85;0.85;;;23.10;58.30;;;;;;5003176;28;86574;-90
2023/08/29 01:55:36;;;;;;;1.02;0.93;;;23.10;58.20;;;;;;4999736;28;89568;-89
2023/08/29 01:58:04;;;;;;;1.08;0.90;;;23.10;58.30;;;;;;4998465;28;88615;-89
2023/08/29 02:00:31;;;;;;;1.67;0.85;;;23.10;58.90;;;;;;4995895;28;86245;-90
2023/08/29 02:02:56;;;;;;;1.10;1.00;;;23.10;58.10;;;;;;5012385;28;85958;-90
2023/08/29 02:05:22;;;;;;;0.80;0.80;;;23.10;58.20;;;;;;4998317;28;89046;-89
2023/08/29 02:07:49;;;;;;;1.05;1.00;;;23.10;58.00;;;;;;5000692;28;87525;-90
2023/08/29 02:10:15;;;;;;;1.27;0.90;;;23.10;58.10;;;;;;4996934;28;85911;-90
2023/08/29 02:12:41;;;;;;;1.08;0.90;;;23.10;58.20;;;;;;4999187;28;86083;-91
2023/08/29 02:15:08;;;;;;;0.90;0.90;;;23.10;58.20;;;;;;4994904;28;89505;-90
2023/08/29 02:17:33;;;;;;;0.98;0.98;;;23.10;58.20;;;;;;4996343;28;87562;-91
2023/08/29 02:19:59;;;;;;;1.10;1.00;;;23.10;58.10;;;;;;4998724;28;86459;-91
2023/08/29 02:22:25;;;;;;;0.90;0.90;;;23.10;58.10;;;;;;4996953;28;86357;-90
2023/08/29 02:24:50;;;;;;;1.00;0.90;;;23.10;58.20;;;;;;5001602;28;86578;-90
2023/08/29 02:27:16;;;;;;;0.98;0.90;;;23.10;58.10;;;;;;4993012;28;88542;-89
2023/08/29 02:29:42;;;;;;;1.23;1.00;;;23.00;58.10;;;;;;5000964;28;90656;-91
2023/08/29 02:32:07;;;;;;;1.50;1.00;;;23.00;58.10;;;;;;5003645;28;86106;-91
2023/08/29 02:34:33;;;;;;;1.17;1.08;;;23.10;58.10;;;;;;4999469;28;89622;-91
2023/08/29 02:36:58;;;;;;;1.00;0.90;;;23.00;58.10;;;;;;5002931;28;86589;-91
2023/08/29 02:39:24;;;;;;;1.20;0.95;;;23.00;58.00;;;;;;5002793;28;85958;-90
2023/08/29 02:41:50;;;;;;;0.90;0.90;;;23.00;58.10;;;;;;4999673;28;86182;-90
2023/08/29 02:44:15;;;;;;;0.93;0.90;;;23.00;58.00;;;;;;5001641;28;87372;-90
2023/08/29 02:46:41;;;;;;;0.90;0.90;;;23.00;58.20;;;;;;4999804;28;85801;-89
2023/08/29 02:49:07;;;;;;;1.33;1.00;;;23.00;58.10;;;;;;5004491;28;86706;-89
2023/08/29 02:51:32;;;;;;;1.13;1.02;;;23.00;58.00;;;;;;4999159;28;86578;-90
2023/08/29 02:53:58;;;;;;;0.75;0.75;;;23.00;58.10;;;;;;4998432;28;89925;-90
2023/08/29 02:56:24;;;;;;;0.95;0.85;;;23.00;58.10;;;;;;5002214;28;86700;-91
2023/08/29 02:58:50;;;;;;;1.08;1.00;;;23.00;58.00;;;;;;4999494;28;86786;-90
2023/08/29 03:01:16;;;;;;;0.80;0.70;;;23.00;58.20;;;;;;5016785;28;86698;-91
2023/08/29 03:03:42;;;;;;;0.95;0.90;;;23.00;58.10;;;;;;5004884;28;85798;-90
2023/08/29 03:06:07;;;;;;;0.75;0.75;;;23.00;58.10;;;;;;5000108;28;87568;-90
2023/08/29 03:08:33;;;;;;;1.15;1.05;;;23.00;58.00;;;;;;4992923;28;87005;-90
2023/08/29 03:11:04;;;;;;;0.88;0.88;;;23.00;58.00;;;;;;4991891;28;86681;-90
2023/08/29 03:13:30;;;;;;;0.90;0.90;;;23.00;58.20;;;;;;5000657;28;88343;-88
2023/08/29 03:15:55;;;;;;;0.90;0.90;;;23.00;58.10;;;;;;5000974;28;87901;-90
2023/08/29 03:18:21;;;;;;;1.00;0.90;;;23.00;57.90;;;;;;5008525;28;86336;-90
2023/08/29 03:20:46;;;;;;;0.85;0.85;;;23.00;57.90;;;;;;5009729;28;86352;-90
2023/08/29 03:23:14;;;;;;;0.95;0.88;;;23.00;58.20;;;;;;4999006;28;87108;-90
2023/08/29 03:25:40;;;;;;;1.10;1.00;;;23.00;58.00;;;;;;5001403;28;88974;-90
2023/08/29 03:28:06;;;;;;;0.85;0.85;;;23.00;58.10;;;;;;4998922;28;86470;-90
2023/08/29 03:30:32;;;;;;;0.90;0.90;;;23.00;58.10;;;;;;5001843;28;85685;-91
2023/08/29 03:32:57;;;;;;;1.27;0.88;;;23.00;58.20;;;;;;4998493;28;89349;-90
2023/08/29 03:35:23;;;;;;;1.10;1.00;;;23.00;58.20;;;;;;4998790;28;88782;-90
2023/08/29 03:37:49;;;;;;;0.95;0.93;;;23.00;58.20;;;;;;5004012;28;86025;-90
2023/08/29 03:40:15;;;;;;;0.95;0.85;;;23.00;58.00;;;;;;4998611;28;86260;-90
2023/08/29 03:42:40;;;;;;;1.02;0.93;;;23.00;58.00;;;;;;5002187;28;89293;-90
2023/08/29 03:45:07;;;;;;;1.05;0.95;;;23.00;58.00;;;;;;5013768;28;89032;-90
2023/08/29 03:47:34;;;;;;;1.45;1.00;;;23.00;58.00;;;;;;5000997;28;86526;-86
2023/08/29 03:50:00;;;;;;;0.95;0.77;;;23.00;58.10;;;;;;4999298;28;86287;-90
2023/08/29 03:52:27;;;;;;;1.00;0.90;;;23.00;58.10;;;;;;5003540;28;86335;-91
2023/08/29 03:54:56;;;;;;;0.98;0.88;;;23.00;58.00;;;;;;4997942;28;88956;-90
2023/08/29 03:57:29;;;;;;;1.23;0.80;;;23.00;58.10;;;;;;5002372;28;86780;-89
2023/08/29 03:59:57;;;;;;;0.80;0.80;;;23.00;58.70;;;;;;4999306;28;86294;-90
2023/08/29 04:02:23;;;;;;;0.93;0.75;;;23.00;58.00;;;;;;4998585;28;90595;-90
2023/08/29 04:04:51;;;;;;;0.93;0.93;;;23.00;58.00;;;;;;5001919;28;86428;-90
2023/08/29 04:07:17;;;;;;;0.87;0.87;;;23.00;58.10;;;;;;5002453;28;86093;-90
2023/08/29 04:09:43;;;;;;;0.90;0.82;;;23.00;58.10;;;;;;4999266;28;85986;-90
2023/08/29 04:12:10;;;;;;;1.00;0.93;;;23.00;58.00;;;;;;4996542;28;88125;-90
2023/08/29 04:14:36;;;;;;;0.77;0.77;;;23.00;58.00;;;;;;4995921;28;88566;-90
2023/08/29 04:17:02;;;;;;;1.02;0.80;;;23.00;58.00;;;;;;4995552;28;86778;-90
2023/08/29 04:19:27;;;;;;;0.95;0.80;;;23.00;58.00;;;;;;4995803;28;86071;-90
2023/08/29 04:21:53;;;;;;;0.70;0.70;;;23.00;58.20;;;;;;5000636;28;89751;-89
2023/08/29 04:24:18;;;;;;;0.90;0.90;;;23.00;58.10;;;;;;4999637;28;86450;-90
2023/08/29 04:26:44;;;;;;;1.20;1.00;;;23.00;58.30;;;;;;4993176;28;85746;-90
2023/08/29 04:29:10;;;;;;;0.68;0.68;;;23.00;58.00;;;;;;4997194;28;86699;-90
2023/08/29 04:31:35;;;;;;;0.98;0.93;;;23.00;58.00;;;;;;4997852;28;88629;-89
2023/08/29 04:34:01;;;;;;;0.80;0.80;;;23.00;57.90;;;;;;4998412;28;86671;-91
2023/08/29 04:36:27;;;;;;;1.42;0.90;;;23.00;58.20;;;;;;4993207;28;92841;-90
2023/08/29 04:38:52;;;;;;;1.10;1.00;;;23.00;58.00;;;;;;4996878;28;86348;-90
2023/08/29 04:41:18;;;;;;;1.73;1.00;;;23.00;58.10;;;;;;4998691;28;88670;-90
2023/08/29 04:43:44;;;;;;;1.10;1.00;;;23.00;58.10;;;;;;4997127;28;89250;-90
2023/08/29 04:46:09;;;;;;;0.90;0.90;;;23.00;58.10;;;;;;5001121;28;86295;-90
2023/08/29 04:48:35;;;;;;;0.82;0.82;;;23.00;58.10;;;;;;4997710;28;86330;-90
2023/08/29 04:51:04;;;;;;;0.70;0.70;;;23.00;58.00;;;;;;4994451;28;88810;-90
2023/08/29 04:53:29;;;;;;;2.05;1.00;;;23.00;58.10;;;;;;5012120;28;88440;-91
2023/08/29 04:56:02;;;;;;;1.05;0.95;;;23.00;58.00;;;;;;4996827;28;86121;-89
2023/08/29 04:58:29;;;;;;;0.80;0.80;;;23.00;58.10;;;;;;4999252;28;86622;-90
2023/08/29 05:00:56;;;;;;;1.00;0.90;;;23.00;58.10;;;;;;4997066;28;89740;-91
2023/08/29 05:03:22;;;;;;;1.52;0.90;;;23.00;58.10;;;;;;4993822;28;88936;-90
2023/08/29 05:05:48;;;;;;;1.20;1.02;;;23.00;58.10;;;;;;4993993;28;86078;-89
2023/08/29 05:08:14;;;;;;;0.70;0.70;;;23.00;58.10;;;;;;4997109;28;86315;-90
2023/08/29 05:10:40;;;;;;;0.90;0.90;;;22.90;58.10;;;;;;4997268;28;90245;-89
2023/08/29 05:13:06;;;;;;;0.90;0.90;;;22.90;58.10;;;;;;4998612;28;86294;-91
2023/08/29 05:15:32;;;;;;;0.80;0.80;;;22.90;58.00;;;;;;4995304;28;86651;-90
2023/08/29 05:17:58;;;;;;;0.80;0.80;;;22.90;58.70;;;;;;4993945;28;86647;-89
2023/08/29 05:20:24;;;;;;;0.73;0.73;;;23.00;58.20;;;;;;4994335;28;89978;-90
2023/08/29 05:22:50;;;;;;;0.80;0.80;;;22.90;58.00;;;;;;4996442;28;87259;-90
2023/08/29 05:25:15;;;;;;;0.80;0.80;;;23.00;58.00;;;;;;4997177;28;86338;-87
2023/08/29 05:27:41;;;;;;;0.82;0.82;;;23.00;58.70;;;;;;4978408;28;86297;-90
2023/08/29 05:30:09;;;;;;;0.73;0.73;;;23.00;58.10;;;;;;4996465;28;89370;-91
2023/08/29 05:32:39;;;;;;;1.25;1.00;;;23.00;58.00;;;;;;5001771;28;88550;-94
2023/08/29 05:35:12;;;;;;;2.03;0.88;;;23.00;58.00;;;;;;4993253;28;86163;-95
2023/08/29 05:37:38;;;;;;;2.55;1.17;;;23.00;57.70;;;;;;5005136;28;86444;-93
2023/08/29 05:40:06;;;;;;;3.30;1.45;;;23.00;57.20;;;;;;5001890;28;89087;-92
2023/08/29 05:42:32;;;;;;;39.60;7.20;;;23.00;57.60;;;;;;4994949;28;88704;-92
2023/08/29 05:44:57;;;;;;;27.58;4.55;;;23.00;57.80;;;;;;4995131;28;86512;-92
2023/08/29 05:47:23;;;;;;;6.97;2.30;;;23.00;57.80;;;;;;4999130;28;86751;-93
2023/08/29 05:49:49;;;;;;;28.48;5.85;;;23.00;57.90;;;;;;4998954;28;89222;-91
2023/08/29 05:52:14;;;;;;;20.77;6.00;;;23.00;57.60;;;;;;5002306;28;86658;-91
2023/08/29 05:54:41;;;;;;;23.83;7.25;;;23.00;57.50;;;;;;4998205;28;86074;-88
2023/08/29 05:57:07;;;;;;;18.95;6.30;;;23.00;57.30;;;;;;4999533;28;86580;-94
2023/08/29 05:59:33;;;;;;;20.95;6.75;;;23.00;57.10;;;;;;4988316;28;89730;-92
2023/08/29 06:01:59;;;;;;;17.27;6.32;;;22.90;56.90;;;;;;5001702;28;86623;-92
2023/08/29 06:04:25;;;;;;;16.33;5.63;;;22.90;57.10;;;;;;5004233;28;86508;-91
2023/08/29 06:06:51;;;;;;;18.55;6.20;;;22.90;57.20;;;;;;5002030;28;86296;-91
2023/08/29 06:09:17;;;;;;;13.63;5.68;;;22.80;56.80;;;;;;4998282;28;87550;-91
2023/08/29 06:11:43;;;;;;;18.27;5.28;;;22.90;56.80;;;;;;4999469;28;88527;-92
2023/08/29 06:14:18;;;;;;;16.70;4.53;;;22.90;56.90;;;;;;5004169;28;86131;-90
2023/08/29 06:16:43;;;;;;;17.25;5.03;;;23.00;57.40;;;;;;5005113;28;86265;-90
2023/08/29 06:19:09;;;;;;;11.52;4.05;;;23.00;57.40;;;;;;5005582;28;88527;-91
2023/08/29 06:21:35;;;;;;;13.65;3.97;;;23.00;57.80;;;;;;5003669;28;86873;-90
2023/08/29 06:24:01;;;;;;;12.73;4.35;;;23.00;57.90;;;;;;5000351;28;86562;-91
2023/08/29 06:26:26;;;;;;;15.02;4.75;;;23.00;57.40;;;;;;4998294;28;86189;-90
2023/08/29 06:28:52;;;;;;;13.60;4.22;;;23.00;57.70;;;;;;4996596;28;92432;-90
2023/08/29 06:31:17;;;;;;;9.07;3.95;;;23.00;58.10;;;;;;4999060;28;88409;-90
2023/08/29 06:33:43;;;;;;;12.45;4.35;;;23.10;58.00;;;;;;4999887;28;86113;-90
2023/08/29 06:36:09;;;;;;;10.20;3.78;;;23.10;58.00;;;;;;5001041;28;86262;-90
2023/08/29 06:38:35;;;;;;;7.55;3.42;;;23.00;58.10;;;;;;4993106;28;89498;-90
2023/08/29 06:41:04;;;;;;;8.60;3.53;;;23.00;58.30;;;;;;4994344;28;86411;-90
2023/08/29 06:43:30;;;;;;;;;;;23.00;58.10;;;;;;4992000;28;86415;-91
2023/08/29 06:45:56;;;;;;;8.55;3.88;;;23.10;58.10;;;;;;5000672;28;86095;-90
2023/08/29 06:48:21;;;;;;;11.15;3.33;;;23.00;58.10;;;;;;4998045;28;89299;-91
2023/08/29 06:50:47;;;;;;;9.73;3.33;;;23.00;58.10;;;;;;4995700;27;86894;-88
2023/08/29 06:53:13;;;;;;;9.70;3.00;;;23.00;58.40;;;;;;4995498;28;86080;-90
2023/08/29 06:55:38;;;;;;;13.00;3.85;;;23.00;58.50;;;;;;4995287;28;86191;-90
2023/08/29 06:58:05;;;;;;;8.40;3.05;;;23.00;58.60;;;;;;4996992;28;87933;-89
2023/08/29 07:00:31;;;;;;;9.18;3.67;;;22.90;58.90;;;;;;4993567;28;86138;-91
2023/08/29 07:02:58;;;;;;;11.77;3.25;;;22.90;59.20;;;;;;4995644;28;86456;-90
2023/08/29 07:05:23;;;;;;;9.95;3.53;;;22.90;59.10;;;;;;4996377;28;86539;-89
2023/08/29 07:07:49;;;;;;;9.55;3.33;;;23.00;59.10;;;;;;4991354;28;89585;-90
2023/08/29 07:10:15;;;;;;;10.95;3.97;;;23.00;59.40;;;;;;4994546;28;88393;-89
2023/08/29 07:12:42;;;;;;;9.70;3.65;;;23.00;59.30;;;;;;4989172;28;86588;-89
2023/08/29 07:15:08;;;;;;;8.80;3.83;;;23.00;59.60;;;;;;4992410;28;87452;-89
2023/08/29 07:17:33;;;;;;;12.45;3.28;;;23.00;59.70;;;;;;4990840;28;90153;-90
2023/08/29 07:19:59;;;;;;;6.57;3.08;;;23.00;59.80;;;;;;4995462;28;86928;-90
2023/08/29 07:22:25;;;;;;;10.68;3.83;;;22.90;60.00;;;;;;4993891;28;86502;-89
2023/08/29 07:24:53;;;;;;;8.40;3.30;;;22.90;60.00;;;;;;4990932;28;86374;-90
2023/08/29 07:27:20;;;;;;;9.15;3.20;;;23.00;60.00;;;;;;4995944;28;88825;-91
2023/08/29 07:29:45;;;;;;;6.22;3.33;;;23.00;59.60;;;;;;4999756;28;88386;-91
2023/08/29 07:32:11;;;;;;;6.72;2.95;;;23.10;59.90;;;;;;5000781;28;86196;-90
2023/08/29 07:34:39;;;;;;;11.55;3.63;;;23.10;59.90;;;;;;4994254;28;86468;-91
2023/08/29 07:37:05;;;;;;;13.48;3.95;;;23.00;59.90;;;;;;4996884;28;89888;-90
2023/08/29 07:39:30;;;;;;;6.88;3.22;;;23.00;60.30;;;;;;4995151;28;88915;-90
2023/08/29 07:41:56;;;;;;;5.00;2.90;;;23.00;60.70;;;;;;4993663;28;86164;-92
2023/08/29 07:44:22;;;;;;;9.07;3.55;;;23.00;61.30;;;;;;5000629;28;86756;-90
2023/08/29 07:46:47;;;;;;;6.25;2.80;;;23.00;61.00;;;;;;5005673;28;86108;-90
2023/08/29 07:49:20;;;;;;;7.95;3.38;;;23.00;61.20;;;;;;5002710;28;87537;-88
2023/08/29 07:51:46;;;;;;;9.32;3.85;;;23.00;61.40;;;;;;4998940;28;86278;-90
2023/08/29 07:54:12;;;;;;;6.80;3.10;;;23.00;60.60;;;;;;4994942;28;86251;-90
2023/08/29 07:56:38;;;;;;;10.63;4.28;;;23.00;61.00;;;;;;4993216;28;86438;-90
2023/08/29 07:59:03;;;;;;;10.30;4.20;;;23.10;60.70;;;;;;4994255;28;88911;-88
2023/08/29 08:01:29;;;;;;;9.38;5.70;;;23.10;61.10;;;;;;4997412;28;86057;-87
2023/08/29 08:03:55;;;;;;;7.85;5.05;;;23.00;59.70;;;;;;4992776;28;86564;-87
2023/08/29 08:06:20;;;;;;;8.98;4.60;;;23.10;59.80;;;;;;4993467;28;89741;-88
2023/08/29 08:08:46;;;;;;;7.00;4.47;;;23.10;60.00;;;;;;4987559;28;87497;-86
2023/08/29 08:11:11;;;;;;;12.25;5.60;;;23.10;59.80;;;;;;4992205;28;86803;-90
2023/08/29 08:13:37;;;;;;;10.38;4.45;;;23.00;59.90;;;;;;4994274;28;85769;-89
2023/08/29 08:16:04;;;;;;;5.68;4.50;;;23.00;60.20;;;;;;4996588;28;86913;-89
2023/08/29 08:18:29;;;;;;;11.43;4.22;;;23.10;60.20;;;;;;4993491;28;89127;-89
2023/08/29 08:20:55;;;;;;;8.52;4.80;;;23.00;60.30;;;;;;4993175;28;86199;-89
2023/08/29 08:23:21;;;;;;;8.32;4.25;;;23.10;60.30;;;;;;5000010;28;86466;-89
2023/08/29 08:25:49;;;;;;;8.23;4.25;;;23.10;60.50;;;;;;5001073;28;89819;-92
2023/08/29 08:28:15;;;;;;;4.65;3.70;;;23.10;60.10;;;;;;5000667;28;87623;-91
2023/08/29 08:30:40;;;;;;;6.15;4.00;;;23.00;60.00;;;;;;5002882;28;86098;-88
2023/08/29 08:33:06;;;;;;;8.90;4.25;;;23.00;60.10;;;;;;5000903;28;86305;-92
2023/08/29 08:35:32;;;;;;;5.18;4.20;;;23.00;60.20;;;;;;4998574;28;92210;-89
2023/08/29 08:37:58;;;;;;;7.35;3.92;;;23.00;60.40;;;;;;4995101;28;87492;-88
2023/08/29 08:40:24;;;;;;;7.25;4.07;;;23.10;60.10;;;;;;5001920;28;86172;-89
2023/08/29 08:42:50;;;;;;;6.53;3.38;;;23.20;59.80;;;;;;5004391;28;86374;-87
2023/08/29 08:45:16;;;;;;;7.00;3.85;;;23.20;59.70;;;;;;5002447;28;88405;-88
2023/08/29 08:47:43;;;;;;;4.68;3.90;;;23.20;59.60;;;;;;4998165;28;89200;-90
2023/08/29 08:50:09;;;;;;;8.70;3.28;;;23.20;59.70;;;;;;5007471;28;86194;-87
2023/08/29 08:52:42;;;;;;;4.95;3.13;;;23.20;59.30;;;;;;5005879;28;86580;-94
2023/08/29 08:55:08;;;;;;;6.38;3.63;;;23.20;59.30;;;;;;5012342;28;88037;-90
2023/08/29 08:57:34;;;;;;;10.88;3.65;;;23.20;59.50;;;;;;4998207;28;87950;-88
2023/08/29 09:00:00;;;;;;;8.38;3.67;;;23.20;59.60;;;;;;4996745;28;86281;-87
2023/08/29 09:02:27;;;;;;;4.60;3.55;;;23.20;59.90;;;;;;4997704;28;86814;-88
2023/08/29 09:04:53;;;;;;;5.85;3.00;;;23.10;60.10;;;;;;4997401;28;86890;-88
2023/08/29 09:07:19;;;;;;;10.13;3.47;;;23.10;61.20;;;;;;4997163;28;86418;-87
2023/08/29 09:10:11;;;;;;;5.85;2.85;;;23.00;60.70;;;;;;4997818;28;86157;-88
2023/08/29 09:12:55;;;;;;;10.13;3.67;;;23.00;60.80;;;;;;4999720;28;86401;-87
2023/08/29 09:15:21;;;;;;;12.65;3.10;;;23.20;60.00;;;;;;4997635;28;86684;-87
2023/08/29 09:17:52;;;;;;;5.80;3.20;;;23.20;59.80;;;;;;5000949;28;86567;-86
2023/08/29 09:20:27;;;;;;;9.63;2.80;;;23.20;59.90;;;;;;5002313;28;85786;-89
2023/08/29 09:22:53;;;;;;;7.38;3.03;;;23.30;59.70;;;;;;4997518;28;86478;-87
2023/08/29 09:25:23;;;;;;;7.18;2.88;;;23.30;58.80;;;;;;5000964;28;85811;-86
2023/08/29 09:27:49;;;;;;;6.40;3.05;;;23.40;59.30;;;;;;4998021;28;87855;-86
2023/08/29 09:30:17;;;;;;;7.13;3.25;;;23.40;59.60;;;;;;4996967;28;87054;-89
2023/08/29 09:32:53;;;;;;;15.50;3.38;;;23.40;59.50;;;;;;4996885;28;85998;-91
2023/08/29 09:35:22;;;;;;;9.90;3.42;;;23.30;59.90;;;;;;4999773;28;87790;-89
2023/08/29 09:37:54;;;;;;;7.97;2.92;;;23.40;59.80;;;;;;5015577;28;89384;-88
2023/08/29 09:40:21;;;;;;;11.35;2.90;;;23.30;60.00;;;;;;4995815;28;87427;-89
2023/08/29 09:43:01;;;;;;;15.18;3.10;;;23.30;60.10;;;;;;5000999;28;86795;-92
2023/08/29 09:45:31;;;;;;;7.20;3.15;;;23.30;60.30;;;;;;5000589;28;89421;-90
2023/08/29 09:48:06;;;;;;;7.88;3.17;;;23.30;60.70;;;;;;4999371;28;88960;-88
2023/08/29 09:50:33;;;;;;;13.13;2.83;;;23.30;60.90;;;;;;4995995;28;86660;-91
2023/08/29 09:53:00;;;;;;;9.00;3.10;;;23.30;61.40;;;;;;4997457;28;86345;-91
2023/08/29 09:55:26;;;;;;;11.20;2.88;;;23.30;61.60;;;;;;4995420;28;89380;-89
2023/08/29 09:57:53;;;;;;;7.18;2.58;;;23.40;61.60;;;;;;5000266;28;88070;-90
2023/08/29 10:00:22;;;;;;;5.30;3.10;;;23.30;61.90;;;;;;4998569;28;86337;-88
2023/08/29 10:02:53;;;;;;;6.70;2.45;;;23.30;62.40;;;;;;4999110;28;86463;-89
2023/08/29 10:05:22;;;;;;;4.05;2.65;;;23.20;62.60;;;;;;4996807;28;86345;-89
2023/08/29 10:07:51;;;;;;;6.60;2.83;;;23.20;62.70;;;;;;4991671;28;89228;-87
2023/08/29 10:10:17;;;;;;;8.85;2.65;;;23.20;63.00;;;;;;4997405;28;86157;-87
2023/08/29 10:12:45;;;;;;;7.10;2.50;;;23.10;63.20;;;;;;4997821;28;86035;-89
2023/08/29 10:15:12;;;;;;;5.82;2.28;;;23.20;63.30;;;;;;4995567;28;87160;-91
2023/08/29 10:17:39;;;;;;;15.27;3.10;;;23.20;62.90;;;;;;4997339;28;88592;-89
2023/08/29 10:20:12;;;;;;;10.18;3.15;;;23.20;62.80;;;;;;4996122;28;86223;-88
2023/08/29 10:22:40;;;;;;;4.78;2.60;;;23.20;63.20;;;;;;4994637;28;86580;-88
2023/08/29 10:25:06;;;;;;;6.30;2.80;;;23.30;63.10;;;;;;4998956;28;89581;-88
2023/08/29 10:27:34;;;;;;;7.90;3.40;;;23.30;62.80;;;;;;4994994;28;89136;-88
2023/08/29 10:30:03;;;;;;;6.63;2.80;;;23.20;63.20;;;;;;4992105;28;86146;-87
2023/08/29 10:32:34;;;;;;;7.40;2.50;;;23.20;63.50;;;;;;4995761;28;86227;-88
2023/08/29 10:35:00;;;;;;;7.03;2.45;;;23.20;63.00;;;;;;4994695;28;89096;-89
2023/08/29 10:37:28;;;;;;;2.97;2.13;;;23.20;63.30;;;;;;4998909;28;87854;-88
2023/08/29 10:40:13;;;;;;;10.63;2.88;;;23.20;63.60;;;;;;4993381;28;87126;-87
2023/08/29 10:42:54;;;;;;;4.72;2.22;;;23.30;63.20;;;;;;4998104;28;86442;-88
2023/08/29 10:45:21;;;;;;;3.42;2.08;;;23.30;63.20;;;;;;4996466;28;90269;-87
2023/08/29 10:47:47;;;;;;;4.80;2.67;;;23.30;62.90;;;;;;4998363;28;89305;-92
2023/08/29 10:50:23;;;;;;;2.50;2.28;;;23.20;62.70;;;;;;5000676;28;87168;-87
2023/08/29 10:52:54;;;;;;;6.60;2.45;;;23.20;62.90;;;;;;4999876;28;85985;-89
2023/08/29 10:55:27;;;;;;;6.50;2.47;;;23.20;63.10;;;;;;4999919;28;85678;-88
2023/08/29 10:57:53;;;;;;;4.20;1.83;;;23.10;62.80;;;;;;4999391;28;86640;-87
2023/08/29 11:00:34;;;;;;;4.60;2.58;;;23.10;62.30;;;;;;5001115;28;86189;-87
2023/08/29 11:03:00;;;;;;;5.57;2.33;;;23.10;61.60;;;;;;4997637;28;86315;-88
2023/08/29 11:05:27;;;;;;;5.90;2.55;;;23.10;62.30;;;;;;4997751;28;85950;-90
2023/08/29 11:07:53;;;;;;;3.38;2.05;;;23.10;62.30;;;;;;4999213;28;86565;-88
2023/08/29 11:10:22;;;;;;;5.10;2.70;;;23.10;62.30;;;;;;4998103;28;85682;-87
2023/08/29 11:13:06;;;;;;;;;;;23.10;61.60;;;;;;5002735;28;86101;-87
2023/08/29 11:15:47;;;;;;;3.13;2.25;;;23.00;61.60;;;;;;5000281;28;92985;-88
2023/08/29 11:18:26;;;;;;;4.32;2.35;;;23.00;60.50;;;;;;4998498;28;88917;-88
2023/08/29 11:20:53;;;;;;;;;;;23.00;61.50;;;;;;4996672;28;86179;-87
2023/08/29 11:25:50;;;;;;;6.75;2.78;;;23.00;60.30;;;;;;4998773;28;89580;-86
2023/08/29 11:28:16;;;;;;;9.65;3.28;;;23.00;60.40;;;;;;4998691;28;89716;-87
2023/08/29 11:30:45;;;;;;;27.48;7.90;;;23.00;60.20;;;;;;5000773;28;86749;-87
2023/08/29 11:33:14;;;;;;;56.22;16.52;;;23.00;60.40;;;;;;4999448;28;86667;-88
2023/08/29 11:35:40;;;;;;;44.50;12.00;;;23.00;60.50;;;;;;4999553;28;87728;-89
2023/08/29 11:38:06;;;;;;;47.17;13.75;;;23.20;61.20;;;;;;4993697;28;89087;-85
2023/08/29 11:40:33;;;;;;;39.72;9.95;;;23.20;61.10;;;;;;4996608;28;85985;-85
2023/08/29 11:42:58;;;;;;;35.78;8.85;;;23.30;60.00;;;;;;4998313;28;86389;-86
2023/08/29 11:45:26;;;;;;;27.33;8.98;;;23.40;60.30;;;;;;5000254;28;86477;-86
2023/08/29 11:47:51;;;;;;;33.03;9.68;;;23.40;61.40;;;;;;4996827;28;86512;-86
2023/08/29 11:50:17;;;;;;;28.52;8.77;;;23.40;61.10;;;;;;4998735;28;86591;-86
2023/08/29 11:52:43;;;;;;;31.48;8.48;;;23.40;61.30;;;;;;4997359;28;86114;-86
2023/08/29 11:55:11;;;;;;;32.50;8.23;;;23.40;61.40;;;;;;4999483;28;86449;-87
2023/08/29 11:57:38;;;;;;;28.80;6.75;;;23.50;60.70;;;;;;4993347;28;89493;-85
2023/08/29 12:00:08;;;;;;;28.40;6.50;;;23.50;60.40;;;;;;5000178;28;86354;-84
2023/08/29 12:02:33;;;;;;;33.17;6.00;;;23.50;60.90;;;;;;5012246;28;86504;-84
2023/08/29 12:04:59;;;;;;;33.63;7.13;;;23.50;60.70;;;;;;4997147;28;86843;-85
2023/08/29 12:07:31;;;;;;;19.48;6.65;;;23.50;61.20;;;;;;4996400;28;88574;-86
2023/08/29 12:10:09;;;;;;;19.25;5.65;;;23.40;61.20;;;;;;4996980;28;86159;-85
2023/08/29 12:12:37;;;;;;;20.63;4.95;;;23.50;60.70;;;;;;4997234;28;86123;-86
2023/08/29 12:15:10;;;;;;;22.65;5.35;;;23.50;60.20;;;;;;5000002;28;87330;-86
2023/08/29 12:17:39;;;;;;;22.40;5.50;;;23.50;60.70;;;;;;4999568;28;86380;-86
2023/08/29 12:20:30;;;;;;;25.60;4.60;;;23.50;60.70;;;;;;4997706;28;86925;-85
2023/08/29 12:22:56;;;;;;;22.50;5.18;;;23.50;60.40;;;;;;4994861;28;86393;-85
2023/08/29 12:25:21;;;;;;;18.02;4.72;;;23.60;60.60;;;;;;4999424;28;88462;-86
2023/08/29 12:27:48;;;;;;;17.90;4.60;;;23.70;60.80;;;;;;4997783;28;86299;-87
2023/08/29 12:30:14;;;;;;;18.08;4.57;;;23.70;61.10;;;;;;4995540;28;86327;-86
2023/08/29 12:32:44;;;;;;;18.17;4.32;;;23.70;60.60;;;;;;5000756;28;86244;-85
2023/08/29 12:35:11;;;;;;;18.70;4.35;;;23.70;60.30;;;;;;4999040;28;87614;-88
2023/08/29 12:37:37;;;;;;;14.35;4.32;;;23.70;60.00;;;;;;4999703;28;86727;-86
2023/08/29 12:40:04;;;;;;;20.23;4.65;;;23.60;60.30;;;;;;4997207;28;86130;-87
2023/08/29 12:42:30;;;;;;;22.08;4.03;;;23.60;60.40;;;;;;5000855;28;85972;-87
2023/08/29 12:44:56;;;;;;;19.20;4.60;;;23.60;60.10;;;;;;4996392;28;89364;-87
2023/08/29 12:47:22;;;;;;;18.83;4.35;;;23.60;60.00;;;;;;4991235;28;87801;-85
2023/08/29 12:49:48;;;;;;;17.00;3.72;;;23.60;60.50;;;;;;4995747;28;86781;-85